createdAt,value
2018-12-22T00:00:25.178Z,7.60
2018-12-22T00:02:54.260Z,7.60
2018-12-22T00:05:23.502Z,7.50
2018-12-22T00:07:52.586Z,7.60
2018-12-22T00:10:22.463Z,7.60
2018-12-22T00:12:51.663Z,7.60
2018-12-22T00:15:20.997Z,7.70
2018-12-22T00:17:50.135Z,7.70
2018-12-22T00:20:19.869Z,7.70
2018-12-22T00:22:49.607Z,7.70
2018-12-22T00:25:18.886Z,7.70
2018-12-22T00:27:48.239Z,7.70
2018-12-22T00:30:17.661Z,7.80
2018-12-22T00:32:47.379Z,7.80
2018-12-22T00:35:16.608Z,7.80
2018-12-22T00:37:45.746Z,7.80
2018-12-22T00:40:14.885Z,7.80
2018-12-22T00:42:43.901Z,7.90
2018-12-22T00:45:13.066Z,7.90
2018-12-22T00:47:42.170Z,7.90
2018-12-22T00:50:11.324Z,7.90
2018-12-22T00:52:40.394Z,7.90
2018-12-22T00:55:09.527Z,7.80
2018-12-22T00:57:38.621Z,7.90
2018-12-22T01:00:08.881Z,7.80
2018-12-22T01:02:37.982Z,7.80
2018-12-22T01:05:07.439Z,7.80
2018-12-22T01:07:36.444Z,7.80
2018-12-22T01:10:07.824Z,7.80
2018-12-22T01:12:36.979Z,7.80
2018-12-22T01:15:07.192Z,7.60
2018-12-22T01:17:36.336Z,7.60
2018-12-22T01:20:07.344Z,7.50
2018-12-22T01:22:36.488Z,7.50
2018-12-22T01:25:06.329Z,7.50
2018-12-22T01:27:35.500Z,7.40
2018-12-22T01:30:05.338Z,7.40
2018-12-22T01:32:34.506Z,7.40
2018-12-22T01:35:03.936Z,7.40
2018-12-22T01:37:33.175Z,7.40
2018-12-22T01:40:02.431Z,7.30
2018-12-22T01:42:31.690Z,7.30
2018-12-22T01:45:00.927Z,7.30
2018-12-22T01:47:30.436Z,7.30
2018-12-22T01:49:59.871Z,7.30
2018-12-22T01:52:29.146Z,7.40
2018-12-22T01:54:58.330Z,7.30
2018-12-22T01:57:27.436Z,7.30
2018-12-22T01:59:56.516Z,7.30
2018-12-22T02:02:25.656Z,7.30
2018-12-22T02:04:54.798Z,7.30
2018-12-22T02:07:23.865Z,7.30
2018-12-22T02:09:52.873Z,7.30
2018-12-22T02:12:21.927Z,7.30
2018-12-22T02:14:51.023Z,7.30
2018-12-22T02:17:20.233Z,7.20
2018-12-22T02:19:49.321Z,7.30
2018-12-22T02:22:18.415Z,7.30
2018-12-22T02:24:47.453Z,7.30
2018-12-22T02:27:16.538Z,7.30
2018-12-22T02:29:45.648Z,7.20
2018-12-22T02:32:14.743Z,7.30
2018-12-22T02:34:43.973Z,7.20
2018-12-22T02:37:13.070Z,7.20
2018-12-22T02:39:42.254Z,7.20
2018-12-22T02:42:11.509Z,7.20
2018-12-22T02:44:40.854Z,7.20
2018-12-22T02:47:10.127Z,7.20
2018-12-22T02:49:39.654Z,7.20
2018-12-22T02:52:09.003Z,7.10
2018-12-22T02:54:38.270Z,7.10
2018-12-22T02:57:07.482Z,7.10
2018-12-22T02:59:36.591Z,7.10
2018-12-22T03:02:05.780Z,7.00
2018-12-22T03:04:34.850Z,7.10
2018-12-22T03:07:03.970Z,7.00
2018-12-22T03:09:33.192Z,7.00
2018-12-22T03:12:02.348Z,7.00
2018-12-22T03:14:31.378Z,7.10
2018-12-22T03:17:00.405Z,7.10
2018-12-22T03:19:29.436Z,7.00
2018-12-22T03:21:58.458Z,7.10
2018-12-22T03:24:27.446Z,7.20
2018-12-22T03:26:56.586Z,7.20
2018-12-22T03:29:25.700Z,7.10
2018-12-22T03:31:54.861Z,7.20
2018-12-22T03:34:24.094Z,7.20
2018-12-22T03:36:53.244Z,7.20
2018-12-22T03:39:22.450Z,7.20
2018-12-22T03:41:51.784Z,7.20
2018-12-22T03:44:20.910Z,7.20
2018-12-22T03:46:50.159Z,7.20
2018-12-22T03:49:19.492Z,7.20
2018-12-22T03:51:48.752Z,7.20
2018-12-22T03:54:18.226Z,7.20
2018-12-22T03:56:47.438Z,7.20
2018-12-22T03:59:24.487Z,7.10
2018-12-22T04:01:47.805Z,7.10
2018-12-22T04:04:16.833Z,7.10
2018-12-22T04:06:45.976Z,7.10
2018-12-22T04:09:15.192Z,7.00
2018-12-22T04:11:44.278Z,7.00
2018-12-22T04:14:13.362Z,7.00
2018-12-22T04:16:42.393Z,7.00
2018-12-22T04:19:11.449Z,7.00
2018-12-22T04:21:40.569Z,7.00
2018-12-22T04:24:09.728Z,6.90
2018-12-22T04:26:38.779Z,6.90
2018-12-22T04:29:07.897Z,7.00
2018-12-22T04:31:36.961Z,7.00
2018-12-22T04:34:06.087Z,7.00
2018-12-22T04:36:35.304Z,7.00
2018-12-22T04:39:07.455Z,7.00
2018-12-22T04:41:36.656Z,7.00
2018-12-22T04:44:05.905Z,7.00
2018-12-22T04:46:35.175Z,7.00
2018-12-22T04:49:04.360Z,7.00
2018-12-22T04:51:33.538Z,7.00
2018-12-22T04:54:02.748Z,7.10
2018-12-22T04:56:31.912Z,7.00
2018-12-22T04:59:01.150Z,7.00
2018-12-22T05:01:30.419Z,7.00
2018-12-22T05:03:59.593Z,7.00
2018-12-22T05:06:28.821Z,7.00
2018-12-22T05:08:57.917Z,7.10
2018-12-22T05:11:27.143Z,7.10
2018-12-22T05:13:56.278Z,7.20
2018-12-22T05:16:25.424Z,7.20
2018-12-22T05:18:54.551Z,7.10
2018-12-22T05:21:23.605Z,7.10
2018-12-22T05:23:52.699Z,7.10
2018-12-22T05:26:21.758Z,7.10
2018-12-22T05:28:50.826Z,7.20
2018-12-22T05:31:19.850Z,7.20
2018-12-22T05:33:48.944Z,7.20
2018-12-22T05:36:18.216Z,7.20
2018-12-22T05:38:47.308Z,7.20
2018-12-22T05:41:16.402Z,7.20
2018-12-22T05:43:45.486Z,7.20
2018-12-22T05:46:14.776Z,7.30
2018-12-22T05:48:43.973Z,7.10
2018-12-22T05:51:13.176Z,7.20
2018-12-22T05:53:42.574Z,7.20
2018-12-22T05:56:11.884Z,7.20
2018-12-22T05:58:41.049Z,7.20
2018-12-22T06:01:10.424Z,7.30
2018-12-22T06:03:39.748Z,7.20
2018-12-22T06:06:08.882Z,7.20
2018-12-22T06:08:37.932Z,7.20
2018-12-22T06:11:06.946Z,7.20
2018-12-22T06:13:35.938Z,7.20
2018-12-22T06:16:05.145Z,7.20
2018-12-22T06:18:34.246Z,7.10
2018-12-22T06:21:03.333Z,7.20
2018-12-22T06:23:32.397Z,7.20
2018-12-22T06:26:01.454Z,7.20
2018-12-22T06:28:30.475Z,7.20
2018-12-22T06:30:59.723Z,7.30
2018-12-22T06:33:28.794Z,7.20
2018-12-22T06:35:57.890Z,7.30
2018-12-22T06:38:27.143Z,7.40
2018-12-22T06:40:56.272Z,7.30
2018-12-22T06:43:25.301Z,7.30
2018-12-22T06:45:54.402Z,7.40
2018-12-22T06:48:23.447Z,7.40
2018-12-22T06:50:52.649Z,7.40
2018-12-22T06:53:22.026Z,7.40
2018-12-22T06:55:51.223Z,7.30
2018-12-22T06:58:20.421Z,7.40
2018-12-22T07:00:49.849Z,7.40
2018-12-22T07:03:18.955Z,7.40
2018-12-22T07:05:48.137Z,7.40
2018-12-22T07:08:17.252Z,7.30
2018-12-22T07:10:46.395Z,7.20
2018-12-22T07:13:15.427Z,7.20
2018-12-22T07:15:44.465Z,7.30
2018-12-22T07:18:13.447Z,7.10
2018-12-22T07:20:42.512Z,7.20
2018-12-22T07:23:11.621Z,7.10
2018-12-22T07:25:40.659Z,7.00
2018-12-22T07:28:09.649Z,7.10
2018-12-22T07:30:38.652Z,7.10
2018-12-22T07:33:07.702Z,7.10
2018-12-22T07:35:36.693Z,7.00
2018-12-22T07:38:05.856Z,7.10
2018-12-22T07:40:34.839Z,7.00
2018-12-22T07:43:04.064Z,7.00
2018-12-22T07:45:33.091Z,6.90
2018-12-22T07:48:02.351Z,6.80
2018-12-22T07:50:31.427Z,6.70
2018-12-22T07:53:01.332Z,6.70
2018-12-22T07:55:30.433Z,6.70
2018-12-22T07:57:59.693Z,6.70
2018-12-22T08:00:34.781Z,6.80
2018-12-22T08:03:00.075Z,6.90
2018-12-22T08:05:29.277Z,6.90
2018-12-22T08:07:59.220Z,6.90
2018-12-22T08:10:28.629Z,7.00
2018-12-22T08:12:57.655Z,6.90
2018-12-22T08:15:26.687Z,6.90
2018-12-22T08:17:55.713Z,7.00
2018-12-22T08:20:24.801Z,6.90
2018-12-22T08:22:53.803Z,7.00
2018-12-22T08:25:22.947Z,7.00
2018-12-22T08:27:51.993Z,7.10
2018-12-22T08:30:21.083Z,7.00
2018-12-22T08:32:50.153Z,7.00
2018-12-22T08:35:19.305Z,7.00
2018-12-22T08:37:48.322Z,7.00
2018-12-22T08:40:17.398Z,7.10
2018-12-22T08:42:46.420Z,7.10
2018-12-22T08:45:15.498Z,7.20
2018-12-22T08:47:44.635Z,7.20
2018-12-22T08:50:14.234Z,7.10
2018-12-22T08:52:43.244Z,7.10
2018-12-22T08:55:12.450Z,7.20
2018-12-22T08:57:41.950Z,7.10
2018-12-22T09:00:13.057Z,7.10
2018-12-22T09:02:42.184Z,7.10
2018-12-22T09:05:11.323Z,7.20
2018-12-22T09:07:40.595Z,7.20
2018-12-22T09:10:10.745Z,7.10
2018-12-22T09:12:39.853Z,7.30
2018-12-22T09:15:09.947Z,7.30
2018-12-22T09:17:39.265Z,7.30
2018-12-22T09:20:10.641Z,7.40
2018-12-22T09:22:40.249Z,7.50
2018-12-22T09:25:12.550Z,7.50
2018-12-22T09:27:42.276Z,7.50
2018-12-22T09:30:13.396Z,7.60
2018-12-22T09:32:42.740Z,7.60
2018-12-22T09:35:12.392Z,7.70
2018-12-22T09:37:41.568Z,7.60
2018-12-22T09:40:10.777Z,7.70
2018-12-22T09:42:39.872Z,7.60
2018-12-22T09:45:09.604Z,7.60
2018-12-22T09:47:38.602Z,7.70
2018-12-22T09:50:11.705Z,7.60
2018-12-22T09:52:40.799Z,7.50
2018-12-22T09:55:09.998Z,7.50
2018-12-22T09:57:39.051Z,7.50
2018-12-22T10:00:11.937Z,7.60
2018-12-22T10:02:40.965Z,7.70
2018-12-22T10:05:10.291Z,7.80
2018-12-22T10:07:39.320Z,7.80
2018-12-22T10:10:15.088Z,7.80
2018-12-22T10:12:44.169Z,7.60
2018-12-22T10:15:13.256Z,7.60
2018-12-22T10:17:42.389Z,7.70
2018-12-22T10:20:11.396Z,7.70
2018-12-22T10:22:40.393Z,7.70
2018-12-22T10:25:11.347Z,7.80
2018-12-22T10:27:40.394Z,7.80
2018-12-22T10:30:15.056Z,7.80
2018-12-22T10:32:44.157Z,7.80
2018-12-22T10:35:19.856Z,7.70
2018-12-22T10:37:48.878Z,7.70
2018-12-22T10:40:17.940Z,7.70
2018-12-22T10:42:47.046Z,7.60
2018-12-22T10:45:16.148Z,7.70
2018-12-22T10:47:45.276Z,7.70
2018-12-22T10:50:14.299Z,7.70
2018-12-22T10:52:43.445Z,7.90
2018-12-22T10:55:12.611Z,8.00
2018-12-22T10:57:41.862Z,8.10
2018-12-22T11:00:16.457Z,8.20
2018-12-22T11:02:45.480Z,8.20
2018-12-22T11:05:16.392Z,8.30
2018-12-22T11:07:45.947Z,8.30
2018-12-22T11:10:22.221Z,8.40
2018-12-22T11:12:53.327Z,8.30
2018-12-22T11:15:27.327Z,8.50
2018-12-22T11:17:56.510Z,8.30
2018-12-22T11:24:00.581Z,8.30
2018-12-22T11:26:29.671Z,8.40
2018-12-22T11:28:58.717Z,8.40
2018-12-22T11:31:34.801Z,8.30
2018-12-22T11:33:58.727Z,8.40
2018-12-22T11:36:27.924Z,8.40
2018-12-22T11:38:56.925Z,8.40
2018-12-22T11:41:26.011Z,8.40
2018-12-22T11:43:55.227Z,8.50
2018-12-22T11:46:24.582Z,8.50
2018-12-22T11:49:37.464Z,8.40
2018-12-22T11:52:06.772Z,8.40
2018-12-22T11:54:35.970Z,8.50
2018-12-22T11:57:05.312Z,8.60
2018-12-22T11:59:34.648Z,8.60
2018-12-22T12:02:09.637Z,8.60
2018-12-22T12:04:35.114Z,8.60
2018-12-22T12:07:04.386Z,8.60
2018-12-22T12:09:33.620Z,8.60
2018-12-22T12:12:02.814Z,8.70
2018-12-22T12:14:33.022Z,8.70
2018-12-22T12:22:50.560Z,8.80
2018-12-22T12:25:19.674Z,8.80
2018-12-22T12:27:48.772Z,8.80
2018-12-22T12:30:17.862Z,8.90
2018-12-22T12:32:46.936Z,8.90
2018-12-22T12:35:16.077Z,8.90
2018-12-22T12:37:45.824Z,8.80
2018-12-22T12:40:15.049Z,8.80
2018-12-22T12:42:44.323Z,8.70
2018-12-22T12:45:16.286Z,8.70
2018-12-22T12:47:46.759Z,8.70
2018-12-22T12:50:20.096Z,8.80
2018-12-22T12:52:55.627Z,8.90
2018-12-22T12:55:24.638Z,8.90
2018-12-22T12:57:53.759Z,8.90
2018-12-22T13:00:22.911Z,8.80
2018-12-22T13:02:51.992Z,8.80
2018-12-22T13:05:21.211Z,8.80
2018-12-22T13:07:50.449Z,8.90
2018-12-22T13:10:19.831Z,8.80
2018-12-22T13:13:02.985Z,8.80
2018-12-22T13:15:32.045Z,8.70
2018-12-22T13:18:01.111Z,8.70
2018-12-22T13:20:30.351Z,8.90
2018-12-22T13:22:59.416Z,8.90
2018-12-22T13:25:28.489Z,9.00
2018-12-22T13:27:57.717Z,9.10
2018-12-22T13:30:27.082Z,9.10
2018-12-22T13:32:57.913Z,9.10
2018-12-22T13:35:28.254Z,9.10
2018-12-22T13:53:57.900Z,8.60
2018-12-22T13:56:31.495Z,8.60
2018-12-22T13:59:01.029Z,8.50
2018-12-22T14:01:34.071Z,8.50
2018-12-22T14:04:03.415Z,8.50
2018-12-22T14:06:39.551Z,8.50
2018-12-22T14:09:09.911Z,8.60
2018-12-22T14:11:40.360Z,8.70
2018-12-22T14:14:13.109Z,8.70
2018-12-22T14:16:52.549Z,8.70
2018-12-22T14:19:21.863Z,8.70
2018-12-22T14:21:51.669Z,8.80
2018-12-22T14:24:34.914Z,8.80
2018-12-22T14:27:04.367Z,8.90
2018-12-22T14:29:33.593Z,8.90
2018-12-22T14:32:02.842Z,8.90
2018-12-22T14:34:41.609Z,8.90
2018-12-22T14:37:10.853Z,9.00
2018-12-22T14:39:39.951Z,9.00
2018-12-22T14:42:09.107Z,8.90
2018-12-22T14:44:38.495Z,8.90
2018-12-22T14:47:08.370Z,9.00
2018-12-22T14:49:37.552Z,8.90
2018-12-22T14:52:06.759Z,9.00
2018-12-22T14:54:36.098Z,9.00
2018-12-22T14:57:05.405Z,9.00
2018-12-22T14:59:34.852Z,9.00
2018-12-22T15:02:04.218Z,9.00
2018-12-22T15:04:33.947Z,8.90
2018-12-22T15:07:04.018Z,8.90
2018-12-22T15:09:33.078Z,8.90
2018-12-22T15:12:02.108Z,8.90
2018-12-22T15:14:31.308Z,9.00
2018-12-22T15:17:00.469Z,8.90
2018-12-22T15:19:30.098Z,8.90
2018-12-22T15:22:00.271Z,8.90
2018-12-22T15:24:29.329Z,8.90
2018-12-22T15:26:58.516Z,8.90
2018-12-22T15:29:27.644Z,8.90
2018-12-22T15:31:56.695Z,8.90
2018-12-22T15:34:25.768Z,8.90
2018-12-22T15:36:54.816Z,8.90
2018-12-22T15:39:24.096Z,8.80
2018-12-22T15:41:53.483Z,8.70
2018-12-22T15:44:22.578Z,8.70
2018-12-22T15:46:51.743Z,8.60
2018-12-22T15:49:23.070Z,8.60
2018-12-22T15:51:52.276Z,8.70
2018-12-22T15:54:21.433Z,8.70
2018-12-22T15:56:50.471Z,8.70
2018-12-22T15:59:19.725Z,8.70
2018-12-22T16:01:49.178Z,8.70
2018-12-22T16:04:18.268Z,8.80
2018-12-22T16:06:47.370Z,8.90
2018-12-22T16:09:16.623Z,8.90
2018-12-22T16:12:19.567Z,8.80
2018-12-22T16:14:48.892Z,8.80
2018-12-22T16:17:18.031Z,8.80
2018-12-22T16:19:48.468Z,8.70
2018-12-22T16:22:17.627Z,8.70
2018-12-22T16:24:46.882Z,8.70
2018-12-22T16:27:16.612Z,8.70
2018-12-22T16:29:46.480Z,8.80
2018-12-22T16:32:15.926Z,8.80
2018-12-22T16:34:44.972Z,8.80
2018-12-22T16:37:14.103Z,8.80
2018-12-22T16:39:43.336Z,8.80
2018-12-22T16:42:12.432Z,8.80
2018-12-22T16:44:41.658Z,8.80
2018-12-22T16:47:10.739Z,8.70
2018-12-22T16:49:39.755Z,8.80
2018-12-22T16:52:08.915Z,8.70
2018-12-22T16:54:38.088Z,8.80
2018-12-22T16:57:07.146Z,8.80
2018-12-22T16:59:37.442Z,8.70
2018-12-22T17:02:23.088Z,8.60
2018-12-22T17:04:52.160Z,8.60
2018-12-22T17:07:21.194Z,8.50
2018-12-22T17:09:50.225Z,8.50
2018-12-22T17:12:19.959Z,8.50
2018-12-22T17:14:49.057Z,8.50
2018-12-22T17:17:18.083Z,8.60
2018-12-22T17:19:47.185Z,8.70
2018-12-22T17:22:28.208Z,8.70
2018-12-22T17:25:06.191Z,8.70
2018-12-22T17:27:35.254Z,8.80
2018-12-22T17:30:04.701Z,8.80
2018-12-22T17:32:34.158Z,8.80
2018-12-22T17:35:03.741Z,8.70
2018-12-22T17:37:33.641Z,8.60
2018-12-22T17:43:26.065Z,8.70
2018-12-22T17:45:55.961Z,8.60
2018-12-22T17:48:25.114Z,8.60
2018-12-22T17:54:04.393Z,8.50
2018-12-22T17:56:34.403Z,8.30
2018-12-22T17:59:03.667Z,8.40
2018-12-22T18:01:33.605Z,8.20
2018-12-22T18:04:03.032Z,8.20
2018-12-22T18:06:32.186Z,8.10
2018-12-22T18:09:02.764Z,8.00
2018-12-22T18:11:31.829Z,8.10
2018-12-22T18:14:01.192Z,8.10
2018-12-22T18:16:30.416Z,8.00
2018-12-22T18:18:59.835Z,8.00
2018-12-22T18:21:29.407Z,8.00
2018-12-22T18:23:58.656Z,7.90
2018-12-22T18:26:27.676Z,8.00
2018-12-22T18:28:56.804Z,8.10
2018-12-22T18:31:25.896Z,8.20
2018-12-22T18:33:55.017Z,8.20
2018-12-22T18:36:24.298Z,8.20
2018-12-22T18:38:53.484Z,8.20
2018-12-22T18:41:22.534Z,8.30
2018-12-22T18:43:51.603Z,8.10
2018-12-22T18:46:20.747Z,8.20
2018-12-22T18:48:50.034Z,8.10
2018-12-22T18:51:19.284Z,8.10
2018-12-22T18:53:48.401Z,8.10
2018-12-22T18:56:17.458Z,8.10
2018-12-22T18:58:46.871Z,8.10
2018-12-22T19:01:16.082Z,8.20
2018-12-22T19:03:45.266Z,8.20
2018-12-22T19:06:14.518Z,8.10
2018-12-22T19:08:43.892Z,8.00
2018-12-22T19:11:15.549Z,8.00
2018-12-22T19:13:44.943Z,8.00
2018-12-22T19:16:17.574Z,7.90
2018-12-22T19:18:47.340Z,7.90
2018-12-22T19:21:17.212Z,7.80
2018-12-22T19:23:48.315Z,7.80
2018-12-22T19:26:18.063Z,7.90
2018-12-22T19:28:47.763Z,7.80
2018-12-22T19:31:17.420Z,7.80
2018-12-22T19:33:53.430Z,7.80
2018-12-22T19:36:19.002Z,7.70
2018-12-22T19:38:48.509Z,7.60
2018-12-22T19:41:17.862Z,7.60
2018-12-22T19:43:47.840Z,7.40
2018-12-22T19:46:17.228Z,7.50
2018-12-22T19:48:46.578Z,7.50
2018-12-22T19:51:15.983Z,7.40
2018-12-22T19:53:45.396Z,7.30
2018-12-22T19:56:14.749Z,7.40
2018-12-22T19:58:45.231Z,7.40
2018-12-22T20:01:14.652Z,7.50
2018-12-22T20:03:44.187Z,7.50
2018-12-22T20:06:13.573Z,7.50
2018-12-22T20:08:43.029Z,7.50
2018-12-22T20:11:13.327Z,7.60
2018-12-22T20:13:42.630Z,7.70
2018-12-22T20:16:12.136Z,7.70
2018-12-22T20:18:41.302Z,7.70
2018-12-22T20:21:10.726Z,7.70
2018-12-22T20:23:40.108Z,7.50
2018-12-22T20:26:09.453Z,7.50
2018-12-22T20:28:38.713Z,7.50
2018-12-22T20:31:08.308Z,7.50
2018-12-22T20:33:38.428Z,7.50
2018-12-22T20:36:07.857Z,7.50
2018-12-22T20:38:37.184Z,7.50
2018-12-22T20:41:06.511Z,7.50
2018-12-22T20:43:36.158Z,7.50
2018-12-22T20:46:05.374Z,7.70
2018-12-22T20:48:34.795Z,7.60
2018-12-22T20:51:04.583Z,7.60
2018-12-22T20:53:34.470Z,7.70
2018-12-22T20:56:03.888Z,7.80
2018-12-22T20:58:36.611Z,7.70
2018-12-22T21:01:06.038Z,7.70
2018-12-22T21:03:40.850Z,7.80
2018-12-22T21:06:21.128Z,7.90
2018-12-22T21:08:50.417Z,7.80
2018-12-22T21:11:19.733Z,7.90
2018-12-22T21:13:48.927Z,7.80
2018-12-22T21:16:21.420Z,7.90
2018-12-22T21:22:02.167Z,7.90
2018-12-22T21:24:31.905Z,7.90
2018-12-22T21:27:01.243Z,7.80
2018-12-22T21:29:30.373Z,7.70
2018-12-22T21:31:59.628Z,7.60
2018-12-22T21:34:29.897Z,7.60
2018-12-22T21:36:58.999Z,7.50
2018-12-22T21:39:28.179Z,7.60
2018-12-22T21:41:57.844Z,7.70
2018-12-22T21:44:26.980Z,7.60
2018-12-22T21:46:56.214Z,7.60
2018-12-22T21:49:25.646Z,7.70
2018-12-22T21:51:55.493Z,7.80
2018-12-22T21:54:25.488Z,7.80
2018-12-22T21:56:54.763Z,7.70
2018-12-22T21:59:23.817Z,7.80
2018-12-22T22:01:52.968Z,7.70
2018-12-22T22:04:22.032Z,7.80
2018-12-22T22:06:51.240Z,7.80
2018-12-22T22:09:20.389Z,7.90
2018-12-22T22:11:49.712Z,7.90
2018-12-22T22:14:18.854Z,7.80
2018-12-22T22:16:48.192Z,7.70
2018-12-22T22:19:17.578Z,7.70
2018-12-22T22:21:46.822Z,7.70
2018-12-22T22:24:16.691Z,7.60
2018-12-22T22:26:45.870Z,7.60
2018-12-22T22:29:15.648Z,7.60
2018-12-22T22:31:44.812Z,7.50
2018-12-22T22:34:14.036Z,7.40
2018-12-22T22:36:43.155Z,7.40
2018-12-22T22:39:12.301Z,7.30
2018-12-22T22:41:41.533Z,7.30
2018-12-22T22:44:10.653Z,7.20
2018-12-22T22:46:39.858Z,7.20
2018-12-22T22:49:09.458Z,7.10
2018-12-22T22:51:39.784Z,7.00
2018-12-22T22:54:09.752Z,7.00
2018-12-22T22:56:39.330Z,7.10
2018-12-22T22:59:09.850Z,7.20
2018-12-22T23:01:41.784Z,7.30
2018-12-22T23:04:11.247Z,7.30
2018-12-22T23:06:40.749Z,7.30
2018-12-22T23:09:12.022Z,7.40
2018-12-22T23:11:41.842Z,7.50
2018-12-22T23:14:11.241Z,7.50
2018-12-22T23:16:41.503Z,7.40
2018-12-22T23:19:12.249Z,7.50
2018-12-22T23:21:41.830Z,7.50
2018-12-22T23:24:12.014Z,7.50
2018-12-22T23:26:42.340Z,7.40
2018-12-22T23:29:11.775Z,7.40
2018-12-22T23:31:42.087Z,7.40
2018-12-22T23:34:11.877Z,7.40
2018-12-22T23:36:42.192Z,7.40
2018-12-22T23:39:11.723Z,7.50
2018-12-22T23:41:44.710Z,7.60
2018-12-22T23:44:16.501Z,7.50
2018-12-22T23:46:46.019Z,7.40
2018-12-22T23:49:15.247Z,7.50
2018-12-22T23:51:44.469Z,7.50
2018-12-22T23:54:13.731Z,7.60
2018-12-22T23:56:43.015Z,7.60
2018-12-22T23:59:13.023Z,7.80
